createdAt,value
2024-03-02T00:01:45.131Z,97133.84
2024-03-02T00:04:46.968Z,97126.22
2024-03-02T00:07:53.973Z,97128.78
2024-03-02T00:10:58.569Z,97135.78
2024-03-02T00:14:01.245Z,97133.13
2024-03-02T00:17:03.628Z,97135.88
2024-03-02T00:20:10.444Z,97131.41
2024-03-02T00:23:18.200Z,97131.34
2024-03-02T00:26:20.144Z,97126.75
2024-03-02T00:29:22.494Z,97130.44
2024-03-02T00:32:24.073Z,97132.19
2024-03-02T00:35:25.736Z,97126.91
2024-03-02T00:38:29.899Z,97135.78
2024-03-02T00:41:32.129Z,97133.38
2024-03-02T00:44:36.851Z,97128.78
2024-03-02T00:47:39.546Z,97142.28
2024-03-02T00:50:41.248Z,97137.25
2024-03-02T00:53:44.221Z,97130.41
2024-03-02T00:56:45.829Z,97132.13
2024-03-02T00:59:47.514Z,97132.19
2024-03-02T01:02:49.214Z,97135.72
2024-03-02T01:05:50.768Z,97133.44
2024-03-02T01:08:54.013Z,97129.19
2024-03-02T01:11:55.649Z,97144.28
2024-03-02T01:14:57.315Z,97139.94
2024-03-02T01:17:59.008Z,97130.41
2024-03-02T01:21:00.857Z,97125.03
2024-03-02T01:24:04.366Z,97125.94
2024-03-02T01:27:06.146Z,97118.88
2024-03-02T01:30:08.364Z,97117.97
2024-03-02T01:33:10.438Z,97111.88
2024-03-02T01:36:12.116Z,97115.56
2024-03-02T01:39:15.096Z,97117.34
2024-03-02T01:42:16.822Z,97109.66
2024-03-02T01:45:18.634Z,97102.66
2024-03-02T01:48:20.681Z,97105.06
2024-03-02T01:51:22.551Z,97099.16
2024-03-02T01:54:25.540Z,97099.28
2024-03-02T01:57:27.152Z,97092.06
2024-03-02T02:00:29.320Z,97095.63
2024-03-02T02:03:31.021Z,97092.38
2024-03-02T02:06:32.786Z,97098.59
2024-03-02T02:09:35.968Z,97095.19
2024-03-02T02:12:37.854Z,97101.31
2024-03-02T02:15:39.601Z,97100.00
2024-03-02T02:18:41.383Z,97086.84
2024-03-02T02:21:44.720Z,97087.00
2024-03-02T02:24:46.517Z,97077.19
2024-03-02T02:27:48.359Z,97077.97
2024-03-02T02:30:50.062Z,97076.44
2024-03-02T02:33:51.701Z,97081.56
2024-03-02T02:36:55.210Z,97072.84
2024-03-02T02:39:56.874Z,97077.28
2024-03-02T02:42:58.883Z,97071.44
2024-03-02T02:46:00.829Z,97070.66
2024-03-02T02:49:02.559Z,97075.03
2024-03-02T02:52:05.601Z,97066.44
2024-03-02T02:55:08.473Z,97073.09
2024-03-02T02:58:10.111Z,97067.72
2024-03-02T03:01:12.080Z,97068.72
2024-03-02T03:04:13.720Z,97067.06
2024-03-02T03:07:17.141Z,97062.34
2024-03-02T03:10:18.991Z,97062.25
2024-03-02T03:13:20.572Z,97066.53
2024-03-02T03:16:22.393Z,97066.44
2024-03-02T03:19:23.996Z,97067.84
2024-03-02T03:22:26.966Z,97081.47
2024-03-02T03:25:28.575Z,97078.97
2024-03-02T03:28:30.170Z,97074.69
2024-03-02T03:31:31.822Z,97058.28
2024-03-02T03:34:33.593Z,97061.31
2024-03-02T03:37:36.814Z,97063.19
2024-03-02T03:40:38.417Z,97062.44
2024-03-02T03:43:40.357Z,97057.56
2024-03-02T03:46:41.943Z,97048.91
2024-03-02T03:49:43.595Z,97050.47
2024-03-02T03:52:46.631Z,97050.31
2024-03-02T03:55:50.268Z,97057.31
2024-03-02T03:58:51.928Z,97059.25
2024-03-02T04:01:54.575Z,97065.50
2024-03-02T04:04:56.334Z,97062.94
2024-03-02T04:07:59.243Z,97062.19
2024-03-02T04:11:01.126Z,97065.63
2024-03-02T04:14:02.709Z,97068.13
2024-03-02T04:17:04.312Z,97063.63
2024-03-02T04:20:06.588Z,97053.97
2024-03-02T04:23:09.944Z,97059.75
2024-03-02T04:26:11.499Z,97056.19
2024-03-02T04:29:13.136Z,97056.94
2024-03-02T04:32:14.849Z,97055.94
2024-03-02T04:35:16.577Z,97062.06
2024-03-02T04:38:19.784Z,97061.91
2024-03-02T04:41:21.607Z,97064.81
2024-03-02T04:44:23.228Z,97068.47
2024-03-02T04:47:27.252Z,97077.31
2024-03-02T04:50:29.020Z,97082.63
2024-03-02T04:53:31.910Z,97081.44
2024-03-02T04:56:33.450Z,97081.34
2024-03-02T04:59:35.486Z,97081.16
2024-03-02T05:02:37.300Z,97073.84
2024-03-02T05:05:39.590Z,97081.22
2024-03-02T05:08:42.887Z,97080.59
2024-03-02T05:12:00.458Z,97076.19
2024-03-02T05:15:02.163Z,97075.94
2024-03-02T05:18:06.501Z,97077.81
2024-03-02T05:21:08.309Z,97079.78
2024-03-02T05:24:11.832Z,97070.84
2024-03-02T05:27:13.528Z,97075.25
2024-03-02T05:30:15.917Z,97074.34
2024-03-02T05:33:17.903Z,97073.31
2024-03-02T05:36:19.649Z,97073.63
2024-03-02T05:39:23.610Z,97083.41
2024-03-02T05:42:25.305Z,97088.78
2024-03-02T05:45:27.000Z,97091.28
2024-03-02T05:48:28.641Z,97084.91
2024-03-02T05:51:30.336Z,97082.03
2024-03-02T05:54:33.430Z,97079.28
2024-03-02T05:57:48.778Z,97088.09
2024-03-02T06:00:50.580Z,97087.88
2024-03-02T06:03:52.377Z,97082.94
2024-03-02T06:06:55.609Z,97092.53
2024-03-02T06:09:59.669Z,97087.38
2024-03-02T06:13:01.770Z,97100.78
2024-03-02T06:16:03.747Z,97098.28
2024-03-02T06:19:05.463Z,97104.28
2024-03-02T06:22:07.092Z,97108.72
2024-03-02T06:25:10.242Z,97104.06
2024-03-02T06:28:11.918Z,97110.19
2024-03-02T06:31:13.759Z,97102.25
2024-03-02T06:34:15.459Z,97119.78
2024-03-02T06:37:19.083Z,97122.41
2024-03-02T06:40:22.984Z,97121.19
2024-03-02T06:43:24.671Z,97129.81
2024-03-02T06:46:26.386Z,97129.63
2024-03-02T06:49:27.952Z,97139.69
2024-03-02T06:52:29.618Z,97144.41
2024-03-02T06:55:32.740Z,97146.00
2024-03-02T06:58:34.433Z,97131.50
2024-03-02T07:01:36.218Z,97136.63
2024-03-02T07:04:37.833Z,97139.22
2024-03-02T07:07:39.501Z,97132.91
2024-03-02T07:10:42.571Z,97127.59
2024-03-02T07:13:44.241Z,97135.16
2024-03-02T07:16:46.025Z,97133.19
2024-03-02T07:19:47.868Z,97135.66
2024-03-02T07:22:49.593Z,97140.66
2024-03-02T07:28:57.206Z,97147.31
2024-03-02T07:31:58.855Z,97147.00
2024-03-02T07:35:02.325Z,97145.13
2024-03-02T07:38:04.761Z,97152.97
2024-03-02T07:41:11.042Z,97150.94
2024-03-02T07:44:15.733Z,97152.66
2024-03-02T07:47:17.872Z,97153.69
2024-03-02T07:50:19.472Z,97152.03
2024-03-02T07:53:21.053Z,97159.00
2024-03-02T07:56:24.116Z,97173.09
2024-03-02T07:59:25.872Z,97176.59
2024-03-02T08:02:27.532Z,97174.81
2024-03-02T08:05:29.101Z,97177.47
2024-03-02T08:08:30.763Z,97181.06
2024-03-02T08:11:33.909Z,97188.91
2024-03-02T08:14:35.792Z,97182.66
2024-03-02T08:17:38.423Z,97187.13
2024-03-02T08:20:41.464Z,97187.13
2024-03-02T08:23:44.918Z,97190.63
2024-03-02T08:26:48.247Z,97189.41
2024-03-02T08:29:50.344Z,97186.72
2024-03-02T08:32:54.913Z,97199.88
2024-03-02T08:35:56.954Z,97192.69
2024-03-02T08:38:58.527Z,97198.69
2024-03-02T08:42:01.645Z,97203.66
2024-03-02T08:45:03.374Z,97198.63
2024-03-02T08:48:05.511Z,97201.28
2024-03-02T08:51:08.953Z,97203.94
2024-03-02T08:54:10.723Z,97204.69
2024-03-02T08:57:13.860Z,97216.16
2024-03-02T09:00:15.637Z,97209.81
2024-03-02T09:03:17.388Z,97208.88
2024-03-02T09:06:20.649Z,97209.69
2024-03-02T09:09:22.266Z,97205.41
2024-03-02T09:12:25.260Z,97209.00
2024-03-02T09:15:27.047Z,97214.50
2024-03-02T09:18:28.697Z,97212.63
2024-03-02T09:21:31.370Z,97204.69
2024-03-02T09:24:34.231Z,97213.69
2024-03-02T09:27:38.916Z,97209.41
2024-03-02T09:30:40.676Z,97212.63
2024-03-02T09:33:42.365Z,97210.94
2024-03-02T09:36:44.232Z,97211.69
2024-03-02T09:39:46.552Z,97205.38
2024-03-02T09:42:54.414Z,97207.25
2024-03-02T09:45:56.218Z,97205.59
2024-03-02T09:48:58.029Z,97204.56
2024-03-02T09:51:59.953Z,97204.97
2024-03-02T09:55:01.949Z,97209.81
2024-03-02T09:58:05.525Z,97205.72
2024-03-02T10:01:07.245Z,97206.81
2024-03-02T10:04:09.244Z,97208.47
2024-03-02T10:07:14.651Z,97200.25
2024-03-02T10:10:17.006Z,97215.75
2024-03-02T10:13:20.147Z,97203.44
2024-03-02T10:16:21.827Z,97200.09
2024-03-02T10:19:23.920Z,97211.56
2024-03-02T10:22:25.588Z,97213.16
2024-03-02T10:25:40.236Z,97208.66
2024-03-02T10:28:50.312Z,97209.81
2024-03-02T10:31:51.976Z,97201.78
2024-03-02T10:34:53.613Z,97208.41
2024-03-02T10:37:55.431Z,97214.81
2024-03-02T10:40:59.919Z,97213.38
2024-03-02T10:44:04.625Z,97209.81
2024-03-02T10:47:06.896Z,97210.88
2024-03-02T10:50:12.016Z,97214.63
2024-03-02T10:53:13.662Z,97214.91
2024-03-02T10:56:17.322Z,97211.63
2024-03-02T10:59:25.432Z,97212.81
2024-03-02T11:02:28.787Z,97209.59
2024-03-02T11:05:33.275Z,97213.88
2024-03-02T11:08:38.795Z,97209.78
2024-03-02T11:11:43.163Z,97217.56
2024-03-02T11:14:48.116Z,97216.19
2024-03-02T11:17:50.220Z,97222.47
2024-03-02T11:20:56.260Z,97206.75
2024-03-02T11:23:58.122Z,97206.28
2024-03-02T11:27:00.937Z,97205.19
2024-03-02T11:30:04.469Z,97209.41
2024-03-02T11:33:10.711Z,97212.09
2024-03-02T11:36:14.028Z,97207.03
2024-03-02T11:39:17.502Z,97209.06
2024-03-02T11:42:19.338Z,97207.38
2024-03-02T11:45:25.208Z,97202.94
2024-03-02T11:48:27.476Z,97209.81
2024-03-02T11:51:29.820Z,97195.56
2024-03-02T11:54:34.372Z,97189.72
2024-03-02T11:57:36.572Z,97193.53
2024-03-02T12:00:39.745Z,97187.03
2024-03-02T12:03:41.646Z,97188.13
2024-03-02T12:06:44.076Z,97197.50
2024-03-02T12:09:45.915Z,97198.25
2024-03-02T12:12:47.587Z,97202.63
2024-03-02T12:15:54.103Z,97199.56
2024-03-02T12:18:56.007Z,97193.75
2024-03-02T12:21:58.319Z,97194.28
2024-03-02T12:25:00.149Z,97190.56
2024-03-02T12:28:03.747Z,97186.34
2024-03-02T12:31:07.825Z,97186.03
2024-03-02T12:34:09.653Z,97191.28
2024-03-02T12:37:13.083Z,97181.75
2024-03-02T12:40:15.347Z,97180.03
2024-03-02T12:43:17.038Z,97177.31
2024-03-02T12:46:20.200Z,97176.81
2024-03-02T12:49:23.294Z,97170.69
2024-03-02T12:52:25.086Z,97172.19
2024-03-02T12:55:27.122Z,97171.72
2024-03-02T12:58:31.868Z,97166.56
2024-03-02T13:01:35.875Z,97172.13
2024-03-02T13:04:38.101Z,97160.84
2024-03-02T13:07:40.007Z,97155.03
2024-03-02T13:10:42.492Z,97162.09
2024-03-02T13:13:44.371Z,97154.41
2024-03-02T13:16:48.605Z,97159.16
2024-03-02T13:19:54.275Z,97152.34
2024-03-02T13:22:56.179Z,97150.16
2024-03-02T13:25:59.307Z,97144.56
2024-03-02T13:29:01.040Z,97151.84
2024-03-02T13:32:05.088Z,97150.75
2024-03-02T13:35:06.976Z,97146.25
2024-03-02T13:38:08.888Z,97143.91
2024-03-02T13:41:11.963Z,97154.03
2024-03-02T13:44:13.796Z,97149.06
2024-03-02T13:47:16.799Z,97137.84
2024-03-02T13:50:19.748Z,97137.25
2024-03-02T13:53:21.416Z,97137.00
2024-03-02T13:56:23.626Z,97125.31
2024-03-02T13:59:25.483Z,97129.31
2024-03-02T14:02:28.516Z,97137.84
2024-03-02T14:05:30.260Z,97128.69
2024-03-02T14:08:34.133Z,97121.16
2024-03-02T14:11:35.870Z,97125.41
2024-03-02T14:14:37.652Z,97128.53
2024-03-02T14:17:40.764Z,97131.97
2024-03-02T14:20:43.489Z,97128.75
2024-03-02T14:23:46.397Z,97123.47
2024-03-02T14:26:48.031Z,97120.31
2024-03-02T14:29:49.712Z,97121.28
2024-03-02T14:32:52.749Z,97120.53
2024-03-02T14:35:54.638Z,97122.13
2024-03-02T14:38:56.781Z,97126.75
2024-03-02T14:41:58.636Z,97117.47
2024-03-02T14:45:00.298Z,97121.38
2024-03-02T14:48:03.579Z,97121.38
2024-03-02T14:51:05.638Z,97116.50
2024-03-02T14:54:07.309Z,97110.91
2024-03-02T14:57:09.455Z,97107.75
2024-03-02T15:00:12.617Z,97115.06
2024-03-02T15:03:15.942Z,97115.91
2024-03-02T15:06:17.695Z,97107.28
2024-03-02T15:09:20.841Z,97109.84
2024-03-02T15:12:22.530Z,97109.97
2024-03-02T15:15:24.297Z,97103.53
2024-03-02T15:18:28.693Z,97110.97
2024-03-02T15:21:30.482Z,97100.75
2024-03-02T15:24:32.176Z,97098.81
2024-03-02T15:27:33.825Z,97101.72
2024-03-02T15:30:35.535Z,97107.69
2024-03-02T15:33:39.047Z,97097.22
2024-03-02T15:36:40.821Z,97103.66
2024-03-02T15:39:42.493Z,97099.66
2024-03-02T15:42:44.208Z,97099.78
2024-03-02T15:45:46.028Z,97098.06
2024-03-02T15:48:49.146Z,97091.00
2024-03-02T15:51:50.947Z,97085.44
2024-03-02T15:54:52.716Z,97088.97
2024-03-02T15:57:54.492Z,97089.81
2024-03-02T16:00:57.088Z,97094.91
2024-03-02T16:04:00.469Z,97090.78
2024-03-02T16:07:02.330Z,97095.03
2024-03-02T16:10:07.916Z,97085.44
2024-03-02T16:13:09.713Z,97089.09
2024-03-02T16:16:12.032Z,97082.75
2024-03-02T16:19:21.167Z,97089.56
2024-03-02T16:22:31.081Z,97088.59
2024-03-02T16:25:32.828Z,97091.88
2024-03-02T16:28:34.546Z,97095.03
2024-03-02T16:31:36.253Z,97086.72
2024-03-02T16:34:39.773Z,97084.34
2024-03-02T16:37:41.454Z,97098.03
2024-03-02T16:40:43.341Z,97094.22
2024-03-02T16:43:46.731Z,97101.94
2024-03-02T16:46:48.568Z,97087.25
2024-03-02T16:49:51.690Z,97096.31
2024-03-02T16:52:53.319Z,97097.31
2024-03-02T16:55:54.961Z,97090.09
2024-03-02T16:58:56.893Z,97093.28
2024-03-02T17:01:59.943Z,97097.38
2024-03-02T17:05:02.976Z,97098.88
2024-03-02T17:08:04.888Z,97109.28
2024-03-02T17:11:06.511Z,97106.31
2024-03-02T17:14:08.254Z,97108.63
2024-03-02T17:17:10.019Z,97106.94
2024-03-02T17:20:14.953Z,97114.41
2024-03-02T17:23:16.490Z,97114.69
2024-03-02T17:26:18.192Z,97126.19
2024-03-02T17:29:19.783Z,97125.22
2024-03-02T17:32:21.644Z,97131.16
2024-03-02T17:35:25.089Z,97124.44
2024-03-02T17:38:26.667Z,97119.53
2024-03-02T17:41:28.348Z,97127.72
2024-03-02T17:44:30.057Z,97134.75
2024-03-02T17:47:31.831Z,97135.59
2024-03-02T17:50:34.821Z,97143.25
2024-03-02T17:53:37.200Z,97141.00
2024-03-02T17:56:38.846Z,97139.41
2024-03-02T17:59:40.464Z,97142.66
2024-03-02T18:02:42.179Z,97145.50
2024-03-02T18:05:45.294Z,97147.22
2024-03-02T18:08:50.338Z,97149.13
2024-03-02T18:11:51.945Z,97150.50
2024-03-02T18:14:53.583Z,97142.03
2024-03-02T18:17:57.525Z,97148.31
2024-03-02T18:21:00.543Z,97147.56
2024-03-02T18:24:02.213Z,97148.63
2024-03-02T18:27:04.024Z,97155.81
2024-03-02T18:30:10.965Z,97155.19
2024-03-02T18:33:12.838Z,97148.34
2024-03-02T18:36:15.894Z,97149.78
2024-03-02T18:39:17.585Z,97149.31
2024-03-02T18:42:19.234Z,97149.72
2024-03-02T18:45:20.914Z,97147.31
2024-03-02T18:48:22.873Z,97155.41
2024-03-02T18:51:26.558Z,97144.88
2024-03-02T18:54:28.396Z,97151.44
2024-03-02T18:57:30.198Z,97146.19
2024-03-02T19:00:32.031Z,97146.38
2024-03-02T19:03:36.278Z,97137.66
2024-03-02T19:06:39.258Z,97149.25
2024-03-02T19:09:40.910Z,97138.72
2024-03-02T19:12:43.173Z,97150.94
2024-03-02T19:15:47.116Z,97148.56
2024-03-02T19:18:49.106Z,97156.69
2024-03-02T19:21:59.478Z,97152.34
2024-03-02T19:25:09.785Z,97150.44
2024-03-02T19:28:11.524Z,97145.50
2024-03-02T19:31:13.942Z,97149.19
2024-03-02T19:34:17.230Z,97151.09
2024-03-02T19:37:20.304Z,97141.59
2024-03-02T19:40:22.779Z,97154.16
2024-03-02T19:43:24.458Z,97151.00
2024-03-02T19:46:26.130Z,97143.31
2024-03-02T19:49:27.979Z,97134.94
2024-03-02T19:52:30.973Z,97141.31
2024-03-02T19:55:32.591Z,97137.09
2024-03-02T19:58:34.246Z,97140.06
2024-03-02T20:01:36.091Z,97143.91
2024-03-02T20:04:37.838Z,97139.47
2024-03-02T20:07:43.706Z,97131.69
2024-03-02T20:10:47.909Z,97131.03
2024-03-02T20:13:51.743Z,97131.69
2024-03-02T20:16:53.328Z,97131.03
2024-03-02T20:19:54.913Z,97131.22
2024-03-02T20:22:57.889Z,97130.34
2024-03-02T20:25:59.485Z,97133.00
2024-03-02T20:29:01.154Z,97123.06
2024-03-02T20:32:02.796Z,97124.41
2024-03-02T20:35:04.627Z,97133.97
2024-03-02T20:38:07.611Z,97119.56
2024-03-02T20:41:14.525Z,97125.53
2024-03-02T20:44:16.484Z,97118.41
2024-03-02T20:47:18.067Z,97118.41
2024-03-02T20:50:19.738Z,97123.56
2024-03-02T20:53:22.652Z,97116.63
2024-03-02T20:56:27.556Z,97116.63
2024-03-02T20:59:31.023Z,97116.13
2024-03-02T21:02:32.599Z,97112.63
2024-03-02T21:05:34.232Z,97114.53
2024-03-02T21:08:37.373Z,97112.34
2024-03-02T21:11:39.306Z,97111.56
2024-03-02T21:14:41.154Z,97107.47
2024-03-02T21:17:42.992Z,97096.84
2024-03-02T21:20:44.590Z,97095.31
2024-03-02T21:23:47.625Z,97097.03
2024-03-02T21:26:50.927Z,97097.88
2024-03-02T21:29:52.707Z,97095.31
2024-03-02T21:32:54.386Z,97096.47
2024-03-02T21:35:55.988Z,97092.00
2024-03-02T21:39:00.626Z,97085.84
2024-03-02T21:42:04.544Z,97094.47
2024-03-02T21:45:06.538Z,97091.38
2024-03-02T21:48:08.519Z,97094.88
2024-03-02T21:51:15.204Z,97082.81
2024-03-02T21:54:18.209Z,97089.06
2024-03-02T21:57:22.740Z,97087.72
2024-03-02T22:00:25.206Z,97083.34
2024-03-02T22:03:26.888Z,97083.34
2024-03-02T22:06:28.698Z,97083.56
2024-03-02T22:09:31.639Z,97086.56
2024-03-02T22:12:33.568Z,97083.69
2024-03-02T22:15:35.276Z,97079.31
2024-03-02T22:18:36.988Z,97079.59
2024-03-02T22:21:38.881Z,97077.81
2024-03-02T22:24:43.679Z,97069.34
2024-03-02T22:27:45.379Z,97066.22
2024-03-02T22:30:47.046Z,97070.34
2024-03-02T22:33:48.659Z,97062.38
2024-03-02T22:36:50.263Z,97057.31
2024-03-02T22:39:53.440Z,97064.63
2024-03-02T22:42:55.184Z,97061.78
2024-03-02T22:45:57.231Z,97056.47
2024-03-02T22:48:58.826Z,97072.47
2024-03-02T22:52:00.752Z,97054.94
2024-03-02T22:55:04.043Z,97057.00
2024-03-02T22:58:06.170Z,97062.00
2024-03-02T23:01:10.144Z,97059.03
2024-03-02T23:04:12.080Z,97059.16
2024-03-02T23:07:20.014Z,97056.88
2024-03-02T23:10:23.322Z,97062.69
2024-03-02T23:13:25.264Z,97053.03
2024-03-02T23:16:28.129Z,97061.00
2024-03-02T23:19:29.855Z,97053.97
2024-03-02T23:22:31.577Z,97054.75
2024-03-02T23:25:34.837Z,97052.09
2024-03-02T23:28:36.437Z,97050.47
2024-03-02T23:31:38.285Z,97047.84
2024-03-02T23:34:39.884Z,97054.16
2024-03-02T23:37:41.535Z,97042.09
2024-03-02T23:41:08.885Z,97051.19
2024-03-02T23:44:13.066Z,97051.09
2024-03-02T23:47:15.203Z,97056.97
2024-03-02T23:50:16.786Z,97051.41
2024-03-02T23:53:18.343Z,97052.28
2024-03-02T23:56:21.405Z,97046.25
2024-03-02T23:59:23.037Z,97045.94
